Time;durP1;ratioP1;P1;durP2;ratioP2;P2;SDS_P1;SDS_P2;PMS_P1;PMS_P2;Temp;Humidity;BMP_temperature;BMP_pressure;BME280_temperature;BME280_humidity;BME280_pressure;Samples;Min_cycle;Max_cycle;Signal;HPM_P1;HPM_P2
2024/01/17 00:02:15;;;;;;;;;;;;;;;-0.92;99.23;92891.34;5060207;28;19930;-74
2024/01/17 00:04:45;;;;;;;;;;;;;;;-0.97;98.42;92892.56;5057849;28;19920;-74
2024/01/17 00:07:12;;;;;;;;;;;;;;;-0.99;98.38;92891.94;5065094;28;19924;-73
2024/01/17 00:09:39;;;;;;;;;;;;;;;-0.97;99.61;92901.88;5065201;28;19927;-74
2024/01/17 00:12:07;;;;;;;;;;;;;;;-1.03;99.00;92900.72;5068746;28;20324;-72
2024/01/17 00:14:34;;;;;;;;;;;;;;;-1.05;98.81;92904.34;5063229;28;19996;-73
2024/01/17 00:17:00;;;;;;;;;;;;;;;-1.08;99.44;92903.69;5068323;28;19920;-73
2024/01/17 00:19:29;;;;;;;;;;;;;;;-1.06;99.55;92895.19;5064262;28;19920;-74
2024/01/17 00:21:56;;;;;;;;;;;;;;;-1.08;99.92;92895.34;5060476;28;19928;-73
2024/01/17 00:24:23;;;;;;;;;;;;;;;-1.14;100.00;92901.75;5063148;28;19932;-73
2024/01/17 00:26:49;;;;;;;;;;;;;;;-1.16;100.00;92906.16;5063792;28;20401;-73
2024/01/17 00:29:18;;;;;;;;;;;;;;;-1.16;100.00;92906.16;5059688;28;19992;-72
2024/01/17 00:31:44;;;;;;;;;;;;;;;-1.15;100.00;92910.25;5064456;28;19924;-73
2024/01/17 00:34:11;;;;;;;;;;;;;;;-1.10;100.00;92918.16;5064481;28;19920;-73
2024/01/17 00:36:37;;;;;;;;;;;;;;;-1.06;100.00;92912.84;5060829;28;19925;-73
2024/01/17 00:39:04;;;;;;;;;;;;;;;-1.13;100.00;92910.09;5057417;28;19920;-72
2024/01/17 00:41:31;;;;;;;;;;;;;;;-1.13;100.00;92907.59;5059551;28;20312;-73
2024/01/17 00:43:57;;;;;;;;;;;;;;;-1.12;100.00;92904.91;5061804;28;19931;-73
2024/01/17 00:46:25;;;;;;;;;;;;;;;-1.12;100.00;92909.97;5060172;28;19928;-72
2024/01/17 00:48:53;;;;;;;;;;;;;;;-1.15;100.00;92909.47;5059777;28;19931;-72
2024/01/17 00:51:23;;;;;;;;;;;;;;;-1.16;100.00;92900.31;5063068;28;19920;-73
2024/01/17 00:53:50;;;;;;;;;;;;;;;-1.16;100.00;92898.59;5059405;28;20213;-72
2024/01/17 00:56:17;;;;;;;;;;;;;;;-1.16;100.00;92897.81;5062516;28;19924;-72
2024/01/17 00:58:43;;;;;;;;;;;;;;;-1.18;100.00;92892.09;5061164;28;19931;-72
2024/01/17 01:01:10;;;;;;;;;;;;;;;-1.19;99.56;92881.25;5059619;28;19920;-72
2024/01/17 01:03:38;;;;;;;;;;;;;;;-1.24;100.00;92874.09;5060848;28;19926;-72
2024/01/17 01:06:05;;;;;;;;;;;;;;;-1.16;100.00;92875.91;5063232;28;20301;-72
2024/01/17 01:08:32;;;;;;;;;;;;;;;-1.19;100.00;92880.44;5054561;28;20524;-72
2024/01/17 01:10:59;;;;;;;;;;;;;;;-1.19;100.00;92877.91;5058220;28;19946;-72
2024/01/17 01:13:25;;;;;;;;;;;;;;;-1.15;100.00;92879.22;5049276;28;20297;-72
2024/01/17 01:15:52;;;;;;;;;;;;;;;-1.19;100.00;92888.00;5060577;28;19930;-71
2024/01/17 01:18:19;;;;;;;;;;;;;;;-1.25;99.01;92880.09;5062560;28;20047;-71
2024/01/17 01:20:47;;;;;;;;;;;;;;;-1.29;98.96;92878.00;5061578;28;20016;-72
2024/01/17 01:23:14;;;;;;;;;;;;;;;-1.28;100.00;92885.44;5060556;28;19930;-72
2024/01/17 01:25:40;;;;;;;;;;;;;;;-1.29;100.00;92872.97;5060661;28;19924;-72
2024/01/17 01:28:07;;;;;;;;;;;;;;;-1.30;100.00;92876.44;5056472;28;19942;-71
2024/01/17 01:30:34;;;;;;;;;;;;;;;-1.42;100.00;92878.38;5058667;28;20007;-72
2024/01/17 01:33:00;;;;;;;;;;;;;;;-1.97;100.00;92878.34;5062650;28;19928;-71
2024/01/17 01:35:27;;;;;;;;;;;;;;;-1.88;100.00;92882.53;5057051;28;19931;-71
2024/01/17 01:37:55;;;;;;;;;;;;;;;-1.84;100.00;92904.91;5059361;28;19930;-71
2024/01/17 01:40:22;;;;;;;;;;;;;;;-2.06;100.00;92901.84;5057296;28;19924;-71
2024/01/17 01:42:48;;;;;;;;;;;;;;;-2.22;100.00;92898.19;5063051;28;20035;-71
2024/01/17 01:45:15;;;;;;;;;;;;;;;-2.45;100.00;92907.84;5058354;28;19921;-71
2024/01/17 01:47:42;;;;;;;;;;;;;;;-2.00;100.00;92903.00;5059438;28;19930;-71
2024/01/17 01:50:11;;;;;;;;;;;;;;;-1.86;100.00;92899.22;5060047;28;20441;-71
2024/01/17 01:52:39;;;;;;;;;;;;;;;-1.78;100.00;92899.31;5062214;28;19920;-71
2024/01/17 01:55:08;;;;;;;;;;;;;;;-1.75;100.00;92901.53;5058475;28;19928;-71
2024/01/17 01:57:36;;;;;;;;;;;;;;;-1.77;100.00;92910.94;5060313;28;19931;-70
2024/01/17 02:00:04;;;;;;;;;;;;;;;-1.79;100.00;92895.19;5059735;28;19924;-71
2024/01/17 02:02:31;;;;;;;;;;;;;;;-1.75;100.00;92899.81;5061957;28;19924;-70
2024/01/17 02:04:58;;;;;;;;;;;;;;;-1.65;100.00;92897.25;5058274;28;19928;-71
2024/01/17 02:07:26;;;;;;;;;;;;;;;-1.53;100.00;92890.25;5058188;28;19931;-71
2024/01/17 02:09:53;;;;;;;;;;;;;;;-1.46;100.00;92885.44;5060619;28;19930;-72
2024/01/17 02:12:21;;;;;;;;;;;;;;;-1.44;100.00;92880.25;5062584;28;19920;-72
2024/01/17 02:14:48;;;;;;;;;;;;;;;-1.38;100.00;92889.75;5060650;28;19920;-71
2024/01/17 02:17:14;;;;;;;;;;;;;;;-1.38;100.00;92877.16;5062259;28;19924;-71
2024/01/17 02:19:42;;;;;;;;;;;;;;;-1.37;100.00;92879.53;5060798;28;19924;-71
2024/01/17 02:22:08;;;;;;;;;;;;;;;-1.32;100.00;92880.81;5062264;28;19920;-72
2024/01/17 02:24:36;;;;;;;;;;;;;;;-1.34;100.00;92880.97;5062171;28;20019;-71
2024/01/17 02:27:03;;;;;;;;;;;;;;;-1.28;100.00;92882.13;5057385;28;19920;-71
2024/01/17 02:29:30;;;;;;;;;;;;;;;-1.26;100.00;92877.72;5062109;28;19924;-72
2024/01/17 02:31:57;;;;;;;;;;;;;;;-1.24;100.00;92870.81;5057807;28;19931;-72
2024/01/17 02:34:24;;;;;;;;;;;;;;;-1.25;100.00;92869.22;5057332;28;19920;-72
2024/01/17 02:36:50;;;;;;;;;;;;;;;-1.20;100.00;92864.56;5061169;28;20465;-72
2024/01/17 02:39:17;;;;;;;;;;;;;;;-1.14;100.00;92861.44;5060901;28;19932;-71
2024/01/17 02:41:45;;;;;;;;;;;;;;;-1.12;100.00;92872.16;5061297;28;20019;-72
2024/01/17 02:44:12;;;;;;;;;;;;;;;-1.05;100.00;92871.56;5054612;28;19930;-72
2024/01/17 02:46:38;;;;;;;;;;;;;;;-0.96;100.00;92873.22;5062491;28;19946;-72
2024/01/17 02:49:05;;;;;;;;;;;;;;;-0.91;100.00;92877.81;5058729;28;20751;-72
2024/01/17 02:51:32;;;;;;;;;;;;;;;-0.89;100.00;92884.28;5060043;28;20016;-72
2024/01/17 02:53:58;;;;;;;;;;;;;;;-0.84;100.00;92883.81;5058294;28;20296;-72
2024/01/17 02:56:25;;;;;;;;;;;;;;;-0.82;100.00;92876.94;5059797;28;20427;-72
2024/01/17 02:58:53;;;;;;;;;;;;;;;-0.80;100.00;92877.56;5062284;28;20029;-71
2024/01/17 03:01:20;;;;;;;;;;;;;;;-0.79;100.00;92869.03;5062689;28;19938;-71
2024/01/17 03:03:46;;;;;;;;;;;;;;;-0.76;100.00;92867.97;5061430;28;19930;-71
2024/01/17 03:06:13;;;;;;;;;;;;;;;-0.66;100.00;92870.41;5064641;28;19920;-72
2024/01/17 03:08:40;;;;;;;;;;;;;;;-0.58;100.00;92862.84;5063392;28;19921;-72
2024/01/17 03:11:06;;;;;;;;;;;;;;;-0.51;100.00;92863.06;5023711;28;19925;-71
2024/01/17 03:13:33;;;;;;;;;;;;;;;-0.45;100.00;92860.72;5023568;28;19951;-71
2024/01/17 03:16:01;;;;;;;;;;;;;;;-0.38;100.00;92855.06;5024954;28;19925;-71
2024/01/17 03:18:29;;;;;;;;;;;;;;;-0.63;100.00;92849.91;5022276;28;20013;-72
2024/01/17 03:20:55;;;;;;;;;;;;;;;-0.66;100.00;92851.00;5025963;28;19928;-71
2024/01/17 03:23:22;;;;;;;;;;;;;;;-0.90;100.00;92849.13;5025595;28;19932;-71
2024/01/17 03:25:49;;;;;;;;;;;;;;;-0.78;100.00;92840.38;5020056;28;19994;-71
2024/01/17 03:28:15;;;;;;;;;;;;;;;-0.68;100.00;92835.22;5025228;28;19924;-72
2024/01/17 03:30:43;;;;;;;;;;;;;;;-0.65;100.00;92824.81;5022767;28;19928;-71
2024/01/17 03:33:11;;;;;;;;;;;;;;;-0.73;100.00;92813.00;5025462;28;19931;-71
2024/01/17 03:35:37;;;;;;;;;;;;;;;-0.91;100.00;92824.84;5025509;28;19931;-71
2024/01/17 03:38:04;;;;;;;;;;;;;;;-0.97;100.00;92826.25;5023487;28;19925;-71
2024/01/17 03:40:31;;;;;;;;;;;;;;;-0.98;100.00;92838.06;5022842;28;19925;-71
2024/01/17 03:42:57;;;;;;;;;;;;;;;-1.30;100.00;92861.31;5025875;28;19955;-71
2024/01/17 03:45:24;;;;;;;;;;;;;;;-1.69;100.00;92860.69;5025735;28;19925;-70
2024/01/17 03:47:51;;;;;;;;;;;;;;;-1.37;100.00;92866.13;5016853;28;20016;-70
2024/01/17 03:50:19;;;;;;;;;;;;;;;-1.16;100.00;92865.81;5024257;28;19925;-70
2024/01/17 03:52:45;;;;;;;;;;;;;;;-1.27;100.00;92871.88;5023594;28;20024;-71
2024/01/17 03:55:12;;;;;;;;;;;;;;;-1.21;100.00;92883.09;5022784;28;19925;-71
2024/01/17 03:57:38;;;;;;;;;;;;;;;-2.05;100.00;92876.53;5024745;28;19925;-71
2024/01/17 04:00:06;;;;;;;;;;;;;;;-1.90;100.00;92886.91;5025720;28;19947;-70
2024/01/17 04:02:33;;;;;;;;;;;;;;;-2.03;100.00;92887.25;5020488;28;19921;-71
2024/01/17 04:04:59;;;;;;;;;;;;;;;-2.26;100.00;92888.56;5022874;28;20015;-71
2024/01/17 04:07:28;;;;;;;;;;;;;;;-1.93;100.00;92886.41;5024080;28;20007;-71
2024/01/17 04:09:55;;;;;;;;;;;;;;;-2.07;100.00;92887.69;5040196;28;19928;-71
2024/01/17 04:12:23;;;;;;;;;;;;;;;-2.06;100.00;92884.22;5061015;28;19931;-70
2024/01/17 04:14:50;;;;;;;;;;;;;;;-2.29;100.00;92880.38;5063415;28;19932;-70
2024/01/17 04:17:16;;;;;;;;;;;;;;;-2.05;100.00;92879.06;5063691;28;19924;-71
2024/01/17 04:19:43;;;;;;;;;;;;;;;-1.77;100.00;92879.03;5062905;28;20355;-71
2024/01/17 04:22:10;;;;;;;;;;;;;;;-1.69;100.00;92880.81;5060810;28;19931;-71
2024/01/17 04:24:41;;;;;;;;;;;;;;;-1.84;100.00;92865.44;5058948;28;19935;-71
2024/01/17 04:27:24;;;;;;;;;;;;;;;-2.16;100.00;92867.44;5057970;28;19971;-71
2024/01/17 04:29:50;;;;;;;;;;;;;;;-1.83;100.00;92859.44;5060015;28;19924;-71
2024/01/17 04:32:17;;;;;;;;;;;;;;;-1.80;100.00;92851.59;5062572;28;20401;-71
2024/01/17 04:34:43;;;;;;;;;;;;;;;-1.82;100.00;92847.63;5064786;28;19972;-71
2024/01/17 04:37:10;;;;;;;;;;;;;;;-2.06;100.00;92838.91;5066198;28;19931;-71
2024/01/17 04:39:37;;;;;;;;;;;;;;;-1.80;100.00;92839.00;5059775;28;19974;-71
2024/01/17 04:42:05;;;;;;;;;;;;;;;-2.00;100.00;92840.09;5062845;28;19978;-71
2024/01/17 04:44:32;;;;;;;;;;;;;;;-2.08;100.00;92845.81;5067047;28;20377;-71
2024/01/17 04:46:59;;;;;;;;;;;;;;;-2.18;100.00;92839.13;5063749;28;20073;-71
2024/01/17 04:49:27;;;;;;;;;;;;;;;-2.24;100.00;92856.50;5065096;28;19924;-71
2024/01/17 04:51:54;;;;;;;;;;;;;;;-1.98;100.00;92855.81;5064160;28;20028;-71
2024/01/17 04:54:20;;;;;;;;;;;;;;;-1.98;100.00;92850.78;5056080;28;19927;-71
2024/01/17 04:57:00;;;;;;;;;;;;;;;-2.21;100.00;92849.47;5062954;28;19920;-71
2024/01/17 04:59:28;;;;;;;;;;;;;;;-2.21;100.00;92859.53;5062337;28;20363;-71
2024/01/17 05:01:55;;;;;;;;;;;;;;;-2.18;100.00;92874.34;5062853;28;19947;-71
2024/01/17 05:04:22;;;;;;;;;;;;;;;-2.07;100.00;92888.47;5063922;28;20482;-71
2024/01/17 05:06:49;;;;;;;;;;;;;;;-1.92;100.00;92887.97;5065149;28;19950;-74
2024/01/17 05:09:17;;;;;;;;;;;;;;;-1.97;100.00;92880.88;5061640;28;19920;-74
2024/01/17 05:11:44;;;;;;;;;;;;;;;-1.62;100.00;92869.22;5061985;28;19920;-71
2024/01/17 05:14:11;;;;;;;;;;;;;;;-2.18;100.00;92876.88;5064260;28;19954;-71
2024/01/17 05:16:39;;;;;;;;;;;;;;;-2.02;100.00;92878.78;5059446;28;19971;-71
2024/01/17 05:19:05;;;;;;;;;;;;;;;-2.02;100.00;92870.44;5063473;28;19927;-71
2024/01/17 05:21:32;;;;;;;;;;;;;;;-2.05;100.00;92860.63;5060970;28;20003;-71
2024/01/17 05:23:59;;;;;;;;;;;;;;;-1.96;100.00;92846.41;5061827;28;19920;-71
2024/01/17 05:26:25;;;;;;;;;;;;;;;-1.70;100.00;92855.78;5063485;28;19927;-71
2024/01/17 05:28:52;;;;;;;;;;;;;;;-1.42;100.00;92865.78;5065636;28;19924;-71
2024/01/17 05:31:19;;;;;;;;;;;;;;;-1.48;100.00;92875.50;5063685;28;19921;-70
2024/01/17 05:33:47;;;;;;;;;;;;;;;-1.71;100.00;92870.09;5060500;28;20901;-71
2024/01/17 05:36:14;;;;;;;;;;;;;;;-1.59;100.00;92879.97;5060884;28;19931;-71
2024/01/17 05:38:40;;;;;;;;;;;;;;;-1.72;100.00;92877.81;5062861;28;19921;-71
2024/01/17 05:41:07;;;;;;;;;;;;;;;-1.50;100.00;92879.91;5060653;28;19924;-71
2024/01/17 05:43:34;;;;;;;;;;;;;;;-1.73;100.00;92883.78;5061728;28;20488;-71
2024/01/17 05:46:03;;;;;;;;;;;;;;;-1.55;100.00;92884.56;5060400;28;20335;-74
2024/01/17 05:48:30;;;;;;;;;;;;;;;-1.48;100.00;92880.53;5060109;28;19921;-71
2024/01/17 05:50:58;;;;;;;;;;;;;;;-1.25;100.00;92872.53;5061562;28;19930;-71
2024/01/17 05:53:25;;;;;;;;;;;;;;;-1.08;100.00;92878.50;5063572;28;20403;-72
2024/01/17 05:55:52;;;;;;;;;;;;;;;-1.09;100.00;92874.41;5065529;28;19999;-71
2024/01/17 05:58:19;;;;;;;;;;;;;;;-0.98;100.00;92849.84;5061510;28;20027;-72
2024/01/17 06:00:46;;;;;;;;;;;;;;;-0.79;100.00;92860.72;5063733;28;20333;-71
2024/01/17 06:03:13;;;;;;;;;;;;;;;-0.83;100.00;92872.81;5065347;28;19924;-71
2024/01/17 06:05:40;;;;;;;;;;;;;;;-0.66;100.00;92878.75;5063752;28;19974;-71
2024/01/17 06:08:08;;;;;;;;;;;;;;;-1.05;100.00;92877.41;5059996;28;19920;-70
2024/01/17 06:10:37;;;;;;;;;;;;;;;-0.68;100.00;92893.25;5063043;28;19920;-71
2024/01/17 06:13:05;;;;;;;;;;;;;;;-0.72;100.00;92897.00;5062875;28;19920;-71
2024/01/17 06:15:32;;;;;;;;;;;;;;;-0.79;100.00;92885.94;5062617;28;19921;-71
2024/01/17 06:18:00;;;;;;;;;;;;;;;-0.68;100.00;92881.41;5063005;28;20468;-71
2024/01/17 06:20:26;;;;;;;;;;;;;;;-0.90;100.00;92881.91;5059699;28;20431;-72
2024/01/17 06:22:53;;;;;;;;;;;;;;;-1.14;100.00;92874.03;5059488;28;19924;-71
2024/01/17 06:25:21;;;;;;;;;;;;;;;-1.21;100.00;92871.31;5057242;28;20298;-71
2024/01/17 06:27:48;;;;;;;;;;;;;;;-1.35;100.00;92877.66;5056951;28;19931;-71
2024/01/17 06:30:14;;;;;;;;;;;;;;;-1.44;100.00;92880.25;5051401;28;19930;-71
2024/01/17 06:32:41;;;;;;;;;;;;;;;-1.42;100.00;92898.53;5049796;28;20937;-72
2024/01/17 06:35:10;;;;;;;;;;;;;;;-1.14;100.00;92879.09;5049427;28;19934;-71
2024/01/17 06:37:36;;;;;;;;;;;;;;;-1.07;100.00;92912.03;5058815;28;19920;-71
2024/01/17 06:40:04;;;;;;;;;;;;;;;-1.05;100.00;92915.22;5053598;28;20035;-71
2024/01/17 06:42:32;;;;;;;;;;;;;;;-1.17;100.00;92906.31;5060052;28;20439;-71
2024/01/17 06:44:58;;;;;;;;;;;;;;;-0.99;100.00;92904.56;5055505;28;19925;-71
2024/01/17 06:47:25;;;;;;;;;;;;;;;-0.90;100.00;92885.22;5055677;28;20396;-71
2024/01/17 06:49:52;;;;;;;;;;;;;;;-0.90;100.00;92877.66;5052915;28;19927;-71
2024/01/17 06:52:19;;;;;;;;;;;;;;;-0.65;100.00;92885.38;5052728;28;19925;-71
2024/01/17 06:54:46;;;;;;;;;;;;;;;-0.84;100.00;92884.63;5058667;28;19942;-71
2024/01/17 06:57:12;;;;;;;;;;;;;;;-0.51;100.00;92880.72;5055894;28;20787;-71
2024/01/17 06:59:41;;;;;;;;;;;;;;;-0.79;100.00;92879.13;5053347;28;20011;-71
2024/01/17 07:02:08;;;;;;;;;;;;;;;-0.52;100.00;92881.66;5054584;28;19929;-71
2024/01/17 07:04:35;;;;;;;;;;;;;;;-0.37;100.00;92886.94;5056826;28;19935;-72
2024/01/17 07:07:01;;;;;;;;;;;;;;;-0.35;100.00;92888.38;5066518;28;19934;-72
2024/01/17 07:09:28;;;;;;;;;;;;;;;-0.39;100.00;92883.75;5058133;28;19920;-71
2024/01/17 07:11:55;;;;;;;;;;;;;;;-0.39;100.00;92883.75;5052191;28;20016;-71
2024/01/17 07:14:22;;;;;;;;;;;;;;;-0.29;100.00;92892.81;5058105;28;19927;-72
2024/01/17 07:16:50;;;;;;;;;;;;;;;-0.48;100.00;92883.72;5052137;28;19935;-71
2024/01/17 07:19:16;;;;;;;;;;;;;;;-0.50;100.00;92879.78;5059232;28;19924;-71
2024/01/17 07:21:43;;;;;;;;;;;;;;;-0.15;100.00;92886.41;5055304;28;19920;-71
2024/01/17 07:24:10;;;;;;;;;;;;;;;-0.18;100.00;92901.06;5059162;28;19946;-71
2024/01/17 07:26:37;;;;;;;;;;;;;;;-0.19;100.00;92910.34;5052135;28;19921;-71
2024/01/17 07:29:04;;;;;;;;;;;;;;;-0.33;100.00;92910.94;5054101;28;19930;-71
2024/01/17 07:31:30;;;;;;;;;;;;;;;-0.03;100.00;92918.94;5053929;28;19964;-71
2024/01/17 07:33:58;;;;;;;;;;;;;;;-0.25;100.00;92907.63;5056924;28;19924;-72
2024/01/17 07:36:25;;;;;;;;;;;;;;;0.04;100.00;92906.50;5057257;28;19939;-72
2024/01/17 07:38:51;;;;;;;;;;;;;;;0.01;100.00;92912.66;5062320;28;19925;-72
2024/01/17 07:41:18;;;;;;;;;;;;;;;-0.09;100.00;92912.75;5055877;28;20465;-72
2024/01/17 07:43:46;;;;;;;;;;;;;;;0.19;100.00;92902.44;5056439;28;19927;-72
2024/01/17 07:46:13;;;;;;;;;;;;;;;0.04;100.00;92912.34;5055402;28;20303;-72
2024/01/17 07:48:40;;;;;;;;;;;;;;;-0.05;100.00;92893.06;5055994;28;20011;-72
2024/01/17 07:51:08;;;;;;;;;;;;;;;0.29;100.00;92893.94;5052794;28;19920;-72
2024/01/17 07:53:35;;;;;;;;;;;;;;;0.54;100.00;92882.13;5053626;28;19920;-72
2024/01/17 07:56:04;;;;;;;;;;;;;;;0.69;100.00;92887.38;5054426;28;19924;-72
2024/01/17 07:58:30;;;;;;;;;;;;;;;0.73;100.00;92896.22;5056928;28;20406;-72
2024/01/17 08:00:57;;;;;;;;;;;;;;;0.72;100.00;92904.75;5056901;28;19920;-72
2024/01/17 08:03:24;;;;;;;;;;;;;;;0.79;100.00;92897.34;5058187;28;19924;-72
2024/01/17 08:05:50;;;;;;;;;;;;;;;0.77;100.00;92894.16;5052809;28;19921;-72
2024/01/17 08:08:18;;;;;;;;;;;;;;;1.07;100.00;92909.69;5052273;28;19971;-73
2024/01/17 08:10:45;;;;;;;;;;;;;;;1.24;100.00;92920.56;5054388;28;20163;-73
2024/01/17 08:13:12;;;;;;;;;;;;;;;1.22;100.00;92917.41;5064805;28;19920;-73
2024/01/17 08:15:39;;;;;;;;;;;;;;;1.60;100.00;92910.06;5053399;28;19971;-73
2024/01/17 08:18:05;;;;;;;;;;;;;;;1.77;100.00;92915.09;5055096;28;20003;-74
2024/01/17 08:20:32;;;;;;;;;;;;;;;1.99;100.00;92905.97;5052751;28;20426;-73
2024/01/17 08:22:59;;;;;;;;;;;;;;;2.24;100.00;92915.22;5063426;28;19928;-73
2024/01/17 08:25:27;;;;;;;;;;;;;;;2.58;100.00;92921.69;5051439;28;19925;-73
2024/01/17 08:27:54;;;;;;;;;;;;;;;2.81;100.00;92918.38;5053987;28;19947;-73
2024/01/17 08:30:20;;;;;;;;;;;;;;;2.98;100.00;92908.13;5053711;28;19920;-73
2024/01/17 08:32:47;;;;;;;;;;;;;;;3.11;100.00;92910.91;5052638;28;20329;-73
2024/01/17 08:35:14;;;;;;;;;;;;;;;3.28;100.00;92924.22;5054943;28;19931;-73
2024/01/17 08:37:41;;;;;;;;;;;;;;;3.41;100.00;92933.81;5051146;28;19968;-73
2024/01/17 08:40:08;;;;;;;;;;;;;;;3.54;100.00;92930.66;5053558;28;20382;-73
2024/01/17 08:42:36;;;;;;;;;;;;;;;3.60;100.00;92940.13;5051476;28;19921;-74
2024/01/17 08:45:03;;;;;;;;;;;;;;;3.72;100.00;92943.06;5052156;28;19921;-73
2024/01/17 08:47:30;;;;;;;;;;;;;;;3.79;100.00;92940.59;5052622;28;19970;-73
2024/01/17 08:49:59;;;;;;;;;;;;;;;3.81;100.00;92938.66;5053850;28;19966;-73
2024/01/17 08:52:25;;;;;;;;;;;;;;;3.87;100.00;92944.78;5048793;28;19925;-73
2024/01/17 08:54:52;;;;;;;;;;;;;;;4.07;100.00;92951.91;5053983;28;19924;-72
2024/01/17 08:57:18;;;;;;;;;;;;;;;4.10;100.00;92954.88;5050676;28;19921;-72
2024/01/17 08:59:46;;;;;;;;;;;;;;;4.13;100.00;92951.19;5049473;28;19931;-72
2024/01/17 09:02:13;;;;;;;;;;;;;;;4.16;100.00;92948.28;5051496;28;19924;-72
2024/01/17 09:04:41;;;;;;;;;;;;;;;4.20;100.00;92948.72;5058262;28;19920;-72
2024/01/17 09:07:08;;;;;;;;;;;;;;;4.26;100.00;92945.50;5049828;28;20316;-72
2024/01/17 09:09:34;;;;;;;;;;;;;;;4.17;100.00;92936.38;5052342;28;19924;-72
2024/01/17 09:12:01;;;;;;;;;;;;;;;4.17;100.00;92921.91;5052221;28;19927;-72
2024/01/17 09:14:28;;;;;;;;;;;;;;;4.21;100.00;92915.50;5051076;28;19946;-72
2024/01/17 09:16:56;;;;;;;;;;;;;;;4.23;100.00;92915.31;5057534;28;19931;-72
2024/01/17 09:19:23;;;;;;;;;;;;;;;4.24;100.00;92914.34;5057964;28;20445;-72
2024/01/17 09:21:50;;;;;;;;;;;;;;;4.23;100.00;92920.41;5049841;28;19930;-72
2024/01/17 09:24:17;;;;;;;;;;;;;;;4.30;100.00;92916.19;5062748;28;19930;-72
2024/01/17 09:26:43;;;;;;;;;;;;;;;4.44;100.00;92914.56;5056964;28;20309;-72
2024/01/17 09:29:10;;;;;;;;;;;;;;;4.67;100.00;92918.72;5050208;28;19920;-72
2024/01/17 09:31:37;;;;;;;;;;;;;;;4.71;100.00;92912.31;5053636;28;19924;-72
2024/01/17 09:34:06;;;;;;;;;;;;;;;4.77;100.00;92906.50;5050866;28;19921;-72
2024/01/17 09:36:33;;;;;;;;;;;;;;;4.91;100.00;92899.00;5052126;28;20281;-72
2024/01/17 09:38:59;;;;;;;;;;;;;;;4.82;100.00;92886.38;5053389;28;19920;-72
2024/01/17 09:41:26;;;;;;;;;;;;;;;4.98;100.00;92891.41;5055761;28;19946;-72
2024/01/17 09:43:53;;;;;;;;;;;;;;;5.04;100.00;92886.38;5053409;28;19924;-72
2024/01/17 09:46:19;;;;;;;;;;;;;;;5.08;100.00;92892.69;5056827;28;19931;-72
2024/01/17 09:48:46;;;;;;;;;;;;;;;5.14;100.00;92883.50;5052148;28;19931;-72
2024/01/17 09:51:15;;;;;;;;;;;;;;;5.20;100.00;92882.78;5047644;28;20452;-72
2024/01/17 09:53:44;;;;;;;;;;;;;;;5.22;100.00;92877.50;5053278;28;19927;-72
2024/01/17 09:56:12;;;;;;;;;;;;;;;5.34;100.00;92881.13;5050175;28;19921;-71
2024/01/17 09:58:40;;;;;;;;;;;;;;;5.44;100.00;92880.00;5062024;28;19927;-72
2024/01/17 10:01:07;;;;;;;;;;;;;;;5.50;100.00;92861.44;5047711;28;19927;-72
2024/01/17 10:03:36;;;;;;;;;;;;;;;5.58;100.00;92865.59;5052351;28;19931;-72
2024/01/17 10:06:03;;;;;;;;;;;;;;;5.65;100.00;92868.19;5051387;28;19920;-72
2024/01/17 10:08:33;;;;;;;;;;;;;;;5.74;100.00;92865.28;5051057;28;19976;-72
2024/01/17 10:10:59;;;;;;;;;;;;;;;5.80;100.00;92862.97;5058107;28;19931;-72
2024/01/17 10:13:26;;;;;;;;;;;;;;;5.91;100.00;92862.44;5049840;28;20309;-72
2024/01/17 10:15:53;;;;;;;;;;;;;;;6.04;100.00;92854.09;5052076;28;20432;-72
2024/01/17 10:18:19;;;;;;;;;;;;;;;6.21;100.00;92854.53;5055997;28;20003;-72
2024/01/17 10:20:46;;;;;;;;;;;;;;;6.32;100.00;92854.97;5049658;28;19934;-72
2024/01/17 10:23:13;;;;;;;;;;;;;;;6.40;100.00;92858.13;5048196;28;19924;-72
2024/01/17 10:25:42;;;;;;;;;;;;;;;6.46;100.00;92845.56;5051744;28;19920;-72
2024/01/17 10:28:09;;;;;;;;;;;;;;;6.53;100.00;92834.41;5049170;28;20401;-72
2024/01/17 10:30:37;;;;;;;;;;;;;;;6.60;100.00;92828.53;5056337;28;19944;-72
2024/01/17 10:33:04;;;;;;;;;;;;;;;6.63;100.00;92825.59;5049218;28;19927;-72
2024/01/17 10:35:31;;;;;;;;;;;;;;;6.79;100.00;92820.13;5051386;28;19924;-72
2024/01/17 10:37:58;;;;;;;;;;;;;;;6.82;100.00;92824.03;5049092;28;19927;-72
2024/01/17 10:40:25;;;;;;;;;;;;;;;6.90;100.00;92821.28;5047858;28;19924;-72
2024/01/17 10:43:09;;;;;;;;;;;;;;;6.89;100.00;92811.28;5049156;28;19942;-72
2024/01/17 10:45:36;;;;;;;;;;;;;;;6.94;100.00;92802.03;5047437;28;19927;-72
2024/01/17 10:48:02;;;;;;;;;;;;;;;6.92;100.00;92798.13;5052513;28;20367;-72
2024/01/17 10:50:30;;;;;;;;;;;;;;;7.01;100.00;92802.03;5059889;28;19931;-72
2024/01/17 10:53:00;;;;;;;;;;;;;;;7.02;100.00;92795.94;5047621;28;19927;-71
2024/01/17 10:55:28;;;;;;;;;;;;;;;7.18;100.00;92791.41;5047916;28;19920;-71
2024/01/17 10:57:58;;;;;;;;;;;;;;;7.25;100.00;92786.28;5049297;28;19936;-71
2024/01/17 11:00:31;;;;;;;;;;;;;;;7.41;100.00;92775.63;5055402;28;20410;-71
2024/01/17 11:02:57;;;;;;;;;;;;;;;7.49;100.00;92767.75;5047418;28;19974;-71
2024/01/17 11:05:27;;;;;;;;;;;;;;;7.49;100.00;92765.22;5049114;28;19929;-71
2024/01/17 11:07:54;;;;;;;;;;;;;;;7.58;100.00;92755.53;5048249;28;19925;-71
2024/01/17 11:10:21;;;;;;;;;;;;;;;7.49;100.00;92744.75;5049084;28;19925;-72
2024/01/17 11:12:47;;;;;;;;;;;;;;;7.54;100.00;92754.38;5052792;28;19928;-71
2024/01/17 11:15:15;;;;;;;;;;;;;;;7.69;100.00;92738.78;5048270;28;21098;-71
2024/01/17 11:17:45;;;;;;;;;;;;;;;7.75;100.00;92739.75;5047173;28;19940;-71
2024/01/17 11:20:13;;;;;;;;;;;;;;;7.99;100.00;92745.94;5047868;28;19924;-71
2024/01/17 11:22:40;;;;;;;;;;;;;;;8.13;100.00;92736.41;5049947;28;20005;-71
2024/01/17 11:25:13;;;;;;;;;;;;;;;8.26;100.00;92739.88;5052942;28;20287;-71
2024/01/17 11:27:43;;;;;;;;;;;;;;;8.42;100.00;92733.47;5055091;28;19925;-71
2024/01/17 11:30:19;;;;;;;;;;;;;;;8.55;100.00;92742.84;5051721;28;20502;-71
2024/01/17 11:32:55;;;;;;;;;;;;;;;8.71;100.00;92740.78;5055478;28;19968;-71
2024/01/17 11:35:41;;;;;;;;;;;;;;;8.82;100.00;92737.53;5054978;28;19939;-71
2024/01/17 11:38:11;;;;;;;;;;;;;;;8.81;100.00;92731.63;5053792;28;20445;-71
2024/01/17 11:40:38;;;;;;;;;;;;;;;8.96;99.29;92738.19;5052405;28;20518;-71
2024/01/17 11:43:05;;;;;;;;;;;;;;;8.95;99.46;92736.63;5051651;28;19921;-72
2024/01/17 11:45:31;;;;;;;;;;;;;;;8.80;99.87;92734.41;5056013;28;20548;-72
2024/01/17 11:48:11;;;;;;;;;;;;;;;8.95;99.76;92737.41;5049545;28;20382;-72
2024/01/17 11:50:38;;;;;;;;;;;;;;;8.99;99.53;92739.56;5052340;28;19924;-71
2024/01/17 11:53:05;;;;;;;;;;;;;;;9.01;99.43;92735.00;5052460;28;19925;-71
2024/01/17 11:55:32;;;;;;;;;;;;;;;9.13;99.22;92727.41;5052578;28;19924;-72
2024/01/17 11:58:00;;;;;;;;;;;;;;;9.18;98.63;92717.31;5052284;28;20002;-71
2024/01/17 12:00:28;;;;;;;;;;;;;;;9.39;98.35;92718.66;5063149;28;20406;-71
2024/01/17 12:02:59;;;;;;;;;;;;;;;9.52;97.76;92716.94;5050838;28;20015;-71
2024/01/17 12:05:28;;;;;;;;;;;;;;;9.69;96.76;92720.50;5050082;28;20031;-71
2024/01/17 12:07:55;;;;;;;;;;;;;;;10.02;96.71;92734.69;5051285;28;19924;-72
2024/01/17 12:10:22;;;;;;;;;;;;;;;10.27;95.32;92732.97;5058009;28;19928;-72
2024/01/17 12:12:49;;;;;;;;;;;;;;;10.28;94.24;92743.00;5055394;28;19934;-71
2024/01/17 12:15:16;;;;;;;;;;;;;;;10.36;92.48;92749.63;5051232;28;19932;-72
2024/01/17 12:17:44;;;;;;;;;;;;;;;10.53;92.46;92736.97;5055242;28;20306;-72
2024/01/17 12:20:11;;;;;;;;;;;;;;;10.65;91.53;92736.97;5051376;28;20034;-72
2024/01/17 12:22:39;;;;;;;;;;;;;;;10.78;91.00;92725.72;5053108;28;20011;-72
2024/01/17 12:25:07;;;;;;;;;;;;;;;10.92;90.07;92723.72;5054004;28;20387;-71
2024/01/17 12:27:34;;;;;;;;;;;;;;;10.98;89.78;92726.38;5057651;28;20257;-71
2024/01/17 12:30:02;;;;;;;;;;;;;;;10.91;90.23;92724.72;5056336;28;19966;-71
2024/01/17 12:32:29;;;;;;;;;;;;;;;11.04;89.59;92710.06;5055648;28;20007;-71
2024/01/17 12:34:56;;;;;;;;;;;;;;;10.96;89.22;92706.06;5053245;28;19925;-71
2024/01/17 12:37:22;;;;;;;;;;;;;;;10.95;90.07;92701.91;5054607;28;20421;-72
2024/01/17 12:39:51;;;;;;;;;;;;;;;11.09;89.52;92699.91;5051705;28;19934;-72
2024/01/17 12:42:18;;;;;;;;;;;;;;;10.93;89.35;92698.81;5053506;28;20007;-72